createdAt,value
2019-04-22T00:00:00.516Z,27.30
2019-04-22T00:00:57.754Z,28.50
2019-04-22T00:02:05.175Z,27.10
2019-04-22T00:03:03.613Z,25.70
2019-04-22T00:04:03.574Z,29.10
2019-04-22T00:05:07.318Z,26.90
2019-04-22T00:06:17.990Z,28.10
2019-04-22T00:07:22.959Z,27.60
2019-04-22T00:08:24.213Z,28.00
2019-04-22T00:09:24.142Z,26.50
2019-04-22T00:10:26.117Z,27.50
2019-04-22T00:11:29.042Z,27.30
2019-04-22T00:12:32.917Z,26.30
2019-04-22T00:13:25.960Z,25.20
2019-04-22T00:14:19.424Z,29.20
2019-04-22T00:15:19.939Z,26.40
2019-04-22T00:16:27.870Z,28.90
2019-04-22T00:17:35.318Z,28.40
2019-04-22T00:18:40.014Z,27.30
2019-04-22T00:19:29.346Z,27.50
2019-04-22T00:20:22.946Z,27.00
2019-04-22T00:21:28.559Z,29.50
2019-04-22T00:23:24.509Z,27.80
2019-04-22T00:24:24.512Z,29.80
2019-04-22T00:25:30.697Z,29.30
2019-04-22T00:26:23.943Z,27.40
2019-04-22T00:27:28.136Z,28.50
2019-04-22T00:28:26.411Z,29.70
2019-04-22T00:29:42.373Z,28.30
2019-04-22T00:30:34.239Z,28.80
2019-04-22T00:31:20.925Z,29.30
2019-04-22T00:32:11.382Z,27.90
2019-04-22T00:33:20.567Z,26.30
2019-04-22T00:34:25.409Z,28.10
2019-04-22T00:35:18.298Z,26.80
2019-04-22T00:36:23.307Z,29.20
2019-04-22T00:37:25.154Z,26.20
2019-04-22T00:38:26.115Z,27.00
2019-04-22T00:39:34.267Z,28.40
2019-04-22T00:40:30.873Z,29.90
2019-04-22T00:41:21.451Z,31.50
2019-04-22T00:42:21.447Z,28.20
2019-04-22T00:43:25.883Z,29.10
2019-04-22T00:44:26.020Z,28.80
2019-04-22T00:45:26.954Z,30.10
2019-04-22T00:46:25.130Z,25.00
2019-04-22T00:47:27.907Z,27.00
2019-04-22T00:48:27.106Z,30.80
2019-04-22T00:50:23.856Z,26.70
2019-04-22T00:51:48.738Z,26.60
2019-04-22T00:52:21.812Z,27.40
2019-04-22T00:53:22.560Z,27.00
2019-04-22T00:54:21.429Z,27.60
2019-04-22T00:55:24.750Z,27.00
2019-04-22T00:56:21.967Z,26.40
2019-04-22T00:57:21.526Z,27.20
2019-04-22T00:58:24.640Z,28.10
2019-04-22T00:59:23.839Z,28.90
2019-04-22T01:00:28.944Z,27.60
2019-04-22T01:02:27.737Z,25.90
2019-04-22T01:03:27.783Z,25.80
2019-04-22T01:04:27.993Z,28.50
2019-04-22T01:05:30.212Z,27.30
2019-04-22T01:06:33.311Z,28.30
2019-04-22T01:07:23.912Z,25.70
2019-04-22T01:08:36.810Z,25.30
2019-04-22T01:09:23.502Z,24.90
2019-04-22T01:10:26.452Z,26.90
2019-04-22T01:11:31.125Z,26.30
2019-04-22T01:12:26.449Z,25.00
2019-04-22T01:13:27.593Z,27.00
2019-04-22T01:14:25.001Z,26.60
2019-04-22T01:15:23.637Z,27.60
2019-04-22T01:16:23.838Z,26.30
2019-04-22T01:17:24.430Z,25.40
2019-04-22T01:18:21.109Z,25.00
2019-04-22T01:19:23.730Z,27.90
2019-04-22T01:20:45.695Z,28.00
2019-04-22T01:21:28.886Z,23.60
2019-04-22T01:22:20.778Z,26.90
2019-04-22T01:23:19.747Z,26.60
2019-04-22T01:24:17.288Z,26.10
2019-04-22T01:25:19.083Z,24.20
2019-04-22T01:26:15.893Z,25.70
2019-04-22T01:27:11.508Z,25.80
2019-04-22T01:28:16.602Z,23.00
2019-04-22T01:29:10.950Z,25.90
2019-04-22T01:30:09.718Z,23.90
2019-04-22T01:31:07.267Z,23.80
2019-04-22T01:31:58.216Z,24.40
2019-04-22T01:33:05.695Z,23.10
2019-04-22T01:34:10.983Z,22.30
2019-04-22T01:35:13.054Z,22.40
2019-04-22T01:36:15.710Z,21.20
2019-04-22T01:37:14.139Z,21.60
2019-04-22T01:38:13.200Z,22.10
2019-04-22T01:39:21.872Z,22.90
2019-04-22T01:40:25.394Z,22.50
2019-04-22T01:41:25.075Z,21.40
2019-04-22T01:42:16.872Z,20.50
2019-04-22T01:43:25.173Z,21.20
2019-04-22T01:45:25.895Z,22.40
2019-04-22T01:46:25.904Z,22.30
2019-04-22T01:47:30.250Z,20.20
2019-04-22T01:48:29.501Z,21.70
2019-04-22T01:49:25.671Z,23.70
2019-04-22T01:50:27.759Z,20.00
2019-04-22T01:51:35.527Z,21.80
2019-04-22T01:52:20.353Z,20.30
2019-04-22T01:53:27.461Z,21.20
2019-04-22T01:54:29.910Z,20.00
2019-04-22T01:55:29.532Z,20.60
2019-04-22T01:56:31.698Z,21.70
2019-04-22T01:57:24.177Z,19.60
2019-04-22T01:58:21.479Z,20.90
2019-04-22T01:59:16.856Z,22.70
2019-04-22T02:00:16.339Z,22.60
2019-04-22T02:01:22.386Z,23.00
2019-04-22T02:02:25.166Z,21.80
2019-04-22T02:03:25.587Z,21.50
2019-04-22T02:04:26.954Z,23.00
2019-04-22T02:05:24.432Z,20.70
2019-04-22T02:06:22.132Z,20.50
2019-04-22T02:07:23.505Z,24.70
2019-04-22T02:08:31.276Z,19.50
2019-04-22T02:10:29.817Z,21.60
2019-04-22T02:11:29.274Z,21.30
2019-04-22T02:12:25.650Z,18.80
2019-04-22T02:13:23.724Z,21.80
2019-04-22T02:14:26.989Z,21.20
2019-04-22T02:15:23.438Z,21.90
2019-04-22T02:16:29.008Z,19.30
2019-04-22T02:17:28.641Z,19.90
2019-04-22T02:18:31.812Z,20.40
2019-04-22T02:19:36.753Z,20.10
2019-04-22T02:20:27.006Z,20.80
2019-04-22T02:21:22.391Z,19.20
2019-04-22T02:22:38.044Z,21.70
2019-04-22T02:23:45.800Z,20.10
2019-04-22T02:24:30.151Z,19.00
2019-04-22T02:25:24.576Z,19.90
2019-04-22T02:26:27.654Z,20.50
2019-04-22T02:27:29.246Z,20.20
2019-04-22T02:28:32.520Z,19.70
2019-04-22T02:29:24.303Z,19.40
2019-04-22T02:30:27.840Z,19.80
2019-04-22T02:32:38.831Z,19.50
2019-04-22T02:35:36.510Z,19.00
2019-04-22T02:36:30.412Z,19.10
2019-04-22T02:37:23.318Z,18.80
2019-04-22T02:38:44.563Z,23.30
2019-04-22T02:39:24.585Z,21.60
2019-04-22T02:40:34.650Z,20.90
2019-04-22T02:42:27.806Z,20.50
2019-04-22T02:43:56.955Z,18.90
2019-04-22T02:44:31.346Z,22.80
2019-04-22T02:45:46.914Z,19.40
2019-04-22T02:47:27.541Z,19.80
2019-04-22T02:48:48.235Z,19.30
2019-04-22T02:50:43.442Z,19.70
2019-04-22T02:52:34.807Z,19.40
2019-04-22T02:55:23.636Z,17.90
2019-04-22T02:57:35.545Z,20.10
2019-04-22T02:58:37.410Z,18.50
2019-04-22T02:59:34.496Z,18.00
2019-04-22T03:00:29.359Z,20.90
2019-04-22T03:01:33.128Z,18.10
2019-04-22T03:02:46.092Z,17.20
2019-04-22T03:03:43.302Z,18.40
2019-04-22T03:07:23.473Z,17.80
2019-04-22T03:08:30.061Z,17.80
2019-04-22T03:09:35.718Z,18.30
2019-04-22T03:10:43.872Z,18.60
2019-04-22T03:11:34.309Z,17.60
2019-04-22T03:12:21.637Z,18.10
2019-04-22T03:14:46.132Z,15.30
2019-04-22T03:15:20.043Z,16.00
2019-04-22T03:16:36.647Z,14.90
2019-04-22T03:17:29.272Z,14.80
2019-04-22T03:20:24.796Z,15.00
2019-04-22T03:21:31.760Z,15.70
2019-04-22T03:23:35.672Z,15.00
2019-04-22T03:24:25.636Z,14.50
2019-04-22T03:25:51.794Z,16.40
2019-04-22T03:26:39.040Z,12.20
2019-04-22T03:27:35.297Z,16.40
2019-04-22T03:28:27.326Z,15.20
2019-04-22T03:29:39.118Z,17.00
2019-04-22T03:30:48.136Z,14.50
2019-04-22T03:31:58.697Z,14.20
2019-04-22T03:32:52.824Z,15.20
2019-04-22T03:34:09.714Z,20.50
2019-04-22T03:38:41.607Z,15.70
2019-04-22T03:41:41.395Z,14.70
2019-04-22T03:42:51.901Z,14.10
2019-04-22T03:43:35.899Z,16.70
2019-04-22T03:46:30.470Z,17.20
2019-04-22T03:47:45.405Z,16.70
2019-04-22T03:48:26.035Z,14.80
2019-04-22T03:49:39.291Z,15.30
2019-04-22T03:50:25.892Z,13.10
2019-04-22T03:51:38.265Z,16.10
2019-04-22T03:52:20.765Z,14.30
2019-04-22T03:54:39.533Z,15.80
2019-04-22T03:56:56.465Z,17.70
2019-04-22T03:57:40.508Z,16.40
2019-04-22T03:58:21.431Z,16.60
2019-04-22T03:59:36.302Z,16.20
2019-04-22T04:00:41.691Z,14.20
2019-04-22T04:01:37.256Z,13.40
2019-04-22T04:02:41.398Z,13.90
2019-04-22T04:03:29.170Z,15.30
2019-04-22T04:05:41.144Z,16.70
2019-04-22T04:06:36.599Z,15.80
2019-04-22T04:07:48.096Z,14.60
2019-04-22T04:09:32.710Z,18.90
2019-04-22T04:10:37.486Z,15.30
2019-04-22T04:11:32.202Z,14.40
2019-04-22T04:12:28.458Z,18.30
2019-04-22T04:13:30.399Z,17.80
2019-04-22T04:16:30.670Z,16.30
2019-04-22T04:17:33.243Z,14.70
2019-04-22T04:18:30.692Z,14.00
2019-04-22T04:19:34.970Z,15.80
2019-04-22T04:20:34.369Z,14.40
2019-04-22T04:26:35.156Z,15.70
2019-04-22T04:27:43.199Z,13.90
2019-04-22T04:28:46.429Z,14.40
2019-04-22T04:29:45.718Z,12.80
2019-04-22T04:33:28.966Z,15.40
2019-04-22T04:34:47.877Z,15.70
2019-04-22T04:36:35.533Z,13.80
2019-04-22T04:37:42.556Z,12.80
2019-04-22T04:38:32.383Z,13.60
2019-04-22T04:41:34.133Z,15.30
2019-04-22T04:43:30.016Z,14.20
2019-04-22T04:44:55.143Z,12.80
2019-04-22T04:45:40.781Z,13.40
2019-04-22T04:46:37.788Z,13.20
2019-04-22T04:47:41.143Z,14.90
2019-04-22T04:48:32.338Z,11.50
2019-04-22T04:50:27.210Z,12.50
2019-04-22T04:51:33.042Z,13.90
2019-04-22T04:52:40.756Z,12.90
2019-04-22T04:54:30.484Z,14.50
2019-04-22T04:55:35.003Z,12.00
2019-04-22T04:56:36.492Z,12.70
2019-04-22T04:57:33.587Z,12.40
2019-04-22T04:58:43.556Z,13.30
2019-04-22T04:59:33.242Z,12.50
2019-04-22T05:01:42.400Z,12.10
2019-04-22T05:02:41.000Z,11.20
2019-04-22T05:03:46.037Z,13.60
2019-04-22T05:05:28.780Z,13.30
2019-04-22T05:06:33.099Z,12.70
2019-04-22T05:08:40.776Z,14.00
2019-04-22T05:09:47.615Z,14.40
2019-04-22T05:11:35.008Z,15.60
2019-04-22T05:12:45.888Z,13.70
2019-04-22T05:13:37.025Z,12.30
2019-04-22T05:14:24.859Z,12.80
2019-04-22T05:15:27.323Z,12.70
2019-04-22T05:17:25.476Z,13.60
2019-04-22T05:18:34.433Z,13.60
2019-04-22T05:19:25.685Z,12.90
2019-04-22T05:22:21.458Z,12.40
2019-04-22T05:23:24.991Z,11.60
2019-04-22T05:24:36.705Z,12.70
2019-04-22T05:25:41.030Z,13.70
2019-04-22T05:26:29.330Z,14.70
2019-04-22T05:27:32.951Z,12.60
2019-04-22T05:28:24.409Z,12.80
2019-04-22T05:29:26.731Z,12.70
2019-04-22T05:31:27.615Z,12.80
2019-04-22T05:32:27.026Z,13.70
2019-04-22T05:33:23.668Z,13.20
2019-04-22T05:34:25.759Z,11.70
2019-04-22T05:36:25.964Z,15.80
2019-04-22T05:37:23.617Z,14.80
2019-04-22T05:38:31.401Z,14.20
2019-04-22T05:39:17.321Z,14.40
2019-04-22T05:40:24.561Z,12.00
2019-04-22T05:41:27.234Z,13.60
2019-04-22T05:42:17.872Z,11.60
2019-04-22T05:43:21.271Z,12.50
2019-04-22T05:45:21.546Z,12.10
2019-04-22T05:46:20.755Z,11.50
2019-04-22T05:47:20.872Z,11.90
2019-04-22T05:48:18.889Z,11.00
2019-04-22T05:49:18.234Z,14.40
2019-04-22T05:50:18.975Z,13.00
2019-04-22T05:51:17.805Z,13.50
2019-04-22T05:52:22.327Z,12.30
2019-04-22T05:53:20.054Z,12.40
2019-04-22T05:54:22.365Z,13.00
2019-04-22T05:55:22.672Z,12.20
2019-04-22T05:56:28.106Z,12.90
2019-04-22T05:57:18.096Z,13.60
2019-04-22T05:58:22.545Z,12.70
2019-04-22T05:59:37.947Z,12.90
2019-04-22T06:00:25.857Z,11.60
2019-04-22T06:02:30.929Z,11.90
2019-04-22T06:03:16.727Z,12.70
2019-04-22T06:04:41.406Z,11.80
2019-04-22T06:05:17.203Z,12.00
2019-04-22T06:06:18.254Z,12.30
2019-04-22T06:07:25.322Z,10.70
2019-04-22T06:08:16.678Z,11.80
2019-04-22T06:09:24.820Z,17.40
2019-04-22T06:10:39.460Z,13.80
2019-04-22T06:12:19.095Z,12.10
2019-04-22T06:13:17.979Z,11.90
2019-04-22T06:14:15.288Z,13.50
2019-04-22T06:15:18.318Z,12.90
2019-04-22T06:16:20.525Z,12.80
2019-04-22T06:17:24.770Z,13.90
2019-04-22T06:18:22.759Z,15.20
2019-04-22T06:19:18.584Z,12.10
2019-04-22T06:20:09.179Z,11.80
2019-04-22T06:21:18.692Z,12.80
2019-04-22T06:22:30.359Z,12.20
2019-04-22T06:23:26.968Z,12.30
2019-04-22T06:24:23.284Z,12.90
2019-04-22T06:25:28.029Z,12.50
2019-04-22T06:26:30.937Z,17.40
2019-04-22T06:27:21.998Z,12.30
2019-04-22T06:28:30.227Z,14.00
2019-04-22T06:29:19.425Z,13.20
2019-04-22T06:30:23.320Z,13.80
2019-04-22T06:31:28.325Z,15.10
2019-04-22T06:33:20.780Z,15.00
2019-04-22T06:34:27.586Z,13.70
2019-04-22T06:35:36.400Z,13.90
2019-04-22T06:36:26.321Z,11.60
2019-04-22T06:37:26.130Z,13.40
2019-04-22T06:38:30.438Z,13.80
2019-04-22T06:40:24.831Z,12.50
2019-04-22T06:41:21.119Z,13.30
2019-04-22T06:42:26.608Z,12.70
2019-04-22T06:43:36.851Z,12.30
2019-04-22T06:46:20.853Z,13.10
2019-04-22T06:47:28.971Z,11.70
2019-04-22T06:49:27.974Z,12.60
2019-04-22T06:50:24.213Z,12.50
2019-04-22T06:51:19.803Z,11.00
2019-04-22T06:52:17.916Z,11.30
2019-04-22T06:53:17.573Z,12.60
2019-04-22T06:54:22.055Z,15.30
2019-04-22T06:55:24.889Z,11.00
2019-04-22T06:56:16.142Z,10.30
2019-04-22T06:57:20.762Z,11.40
2019-04-22T06:58:15.374Z,12.60
2019-04-22T06:59:22.993Z,12.40
2019-04-22T07:00:18.518Z,12.80
2019-04-22T07:01:35.730Z,12.50
2019-04-22T07:02:25.622Z,10.80
2019-04-22T07:04:17.244Z,12.20
2019-04-22T07:05:23.363Z,12.00
2019-04-22T07:06:37.282Z,12.90
2019-04-22T07:07:20.158Z,9.80
2019-04-22T07:08:46.944Z,11.20
2019-04-22T07:10:28.631Z,10.60
2019-04-22T07:11:18.512Z,10.30
2019-04-22T07:12:30.523Z,12.20
2019-04-22T07:13:23.301Z,13.20
2019-04-22T07:14:16.363Z,11.40
2019-04-22T07:15:36.902Z,14.30
2019-04-22T07:17:26.253Z,13.10
2019-04-22T07:18:24.995Z,12.40
2019-04-22T07:19:20.590Z,14.30
2019-04-22T07:20:24.136Z,10.50
2019-04-22T07:21:19.710Z,9.60
2019-04-22T07:23:33.392Z,8.80
2019-04-22T07:24:35.595Z,10.70
2019-04-22T07:25:15.690Z,9.70
2019-04-22T07:26:16.228Z,9.60
2019-04-22T07:28:15.728Z,11.00
2019-04-22T07:30:25.323Z,8.90
2019-04-22T07:31:16.000Z,9.70
2019-04-22T07:32:29.764Z,10.20
2019-04-22T07:33:20.550Z,9.10
2019-04-22T07:34:34.622Z,9.40
2019-04-22T07:35:22.757Z,8.80
2019-04-22T07:37:29.151Z,7.40
2019-04-22T07:38:25.682Z,7.30
2019-04-22T07:39:15.681Z,8.10
2019-04-22T07:40:17.235Z,7.80
2019-04-22T07:41:23.073Z,8.60
2019-04-22T07:42:19.006Z,8.30
2019-04-22T07:45:22.562Z,9.60
2019-04-22T07:46:19.844Z,8.80
2019-04-22T07:47:25.743Z,9.90
2019-04-22T07:48:26.431Z,7.80
2019-04-22T07:49:22.037Z,9.60
2019-04-22T07:50:30.264Z,7.70
2019-04-22T07:51:23.207Z,8.00
2019-04-22T07:52:20.363Z,7.20
2019-04-22T07:53:19.822Z,9.00
2019-04-22T07:54:19.684Z,9.00
2019-04-22T07:55:11.907Z,8.20
2019-04-22T07:56:18.435Z,7.10
2019-04-22T07:57:27.801Z,7.60
2019-04-22T07:58:18.613Z,8.30
2019-04-22T07:59:22.266Z,8.10
2019-04-22T08:01:20.301Z,8.40
2019-04-22T08:02:21.057Z,8.40
2019-04-22T08:03:28.937Z,7.30
2019-04-22T08:04:22.911Z,8.80
2019-04-22T08:05:22.807Z,7.70
2019-04-22T08:06:26.510Z,8.70
2019-04-22T08:07:18.106Z,6.90
2019-04-22T08:09:19.931Z,9.00
2019-04-22T08:10:29.980Z,8.30
2019-04-22T08:11:43.744Z,9.40
2019-04-22T08:12:20.309Z,9.40
2019-04-22T08:13:21.212Z,7.50
2019-04-22T08:14:22.482Z,7.20
2019-04-22T08:15:21.267Z,9.10
2019-04-22T08:16:19.938Z,12.20
2019-04-22T08:17:50.438Z,8.60
2019-04-22T08:18:17.209Z,8.40
2019-04-22T08:19:22.766Z,7.20
2019-04-22T08:20:25.147Z,7.80
2019-04-22T08:21:19.742Z,8.60
2019-04-22T08:22:17.107Z,8.00
2019-04-22T08:23:19.181Z,6.80
2019-04-22T08:24:35.975Z,7.20
2019-04-22T08:25:18.088Z,7.70
2019-04-22T08:26:20.584Z,8.00
2019-04-22T08:27:15.299Z,10.20
2019-04-22T08:28:17.824Z,7.00
2019-04-22T08:29:20.322Z,8.70
2019-04-22T08:30:20.713Z,8.10
2019-04-22T08:31:25.091Z,7.40
2019-04-22T08:32:21.934Z,9.80
2019-04-22T08:33:21.574Z,6.70
2019-04-22T08:34:20.817Z,6.70
2019-04-22T08:35:20.237Z,7.00
2019-04-22T08:36:23.316Z,8.90
2019-04-22T08:37:41.871Z,7.80
2019-04-22T08:38:14.671Z,8.40
2019-04-22T08:39:21.775Z,6.80
2019-04-22T08:40:21.026Z,8.70
2019-04-22T08:41:28.351Z,6.30
2019-04-22T08:42:28.002Z,7.60
2019-04-22T08:43:30.081Z,6.60
2019-04-22T08:44:26.092Z,9.10
2019-04-22T08:45:14.950Z,6.50
2019-04-22T08:46:24.179Z,8.20
2019-04-22T08:48:15.023Z,7.70
2019-04-22T08:49:10.558Z,7.60
2019-04-22T08:50:36.423Z,6.50
2019-04-22T08:51:22.177Z,6.60
2019-04-22T08:52:26.096Z,7.40
2019-04-22T08:53:28.507Z,7.50
2019-04-22T08:54:24.512Z,9.80
2019-04-22T08:55:20.958Z,7.00
2019-04-22T08:57:22.944Z,8.10
2019-04-22T08:59:28.233Z,9.50
2019-04-22T09:00:19.932Z,8.50
2019-04-22T09:01:21.213Z,6.70
2019-04-22T09:02:19.819Z,7.70
2019-04-22T09:03:10.766Z,7.30
2019-04-22T09:04:11.973Z,8.10
2019-04-22T09:05:22.543Z,6.90
2019-04-22T09:06:29.591Z,6.90
2019-04-22T09:07:31.486Z,7.50
2019-04-22T09:08:19.090Z,8.20
2019-04-22T09:09:21.219Z,6.70
2019-04-22T09:10:18.099Z,8.10
2019-04-22T09:11:20.070Z,7.30
2019-04-22T09:12:23.786Z,6.90
2019-04-22T09:13:13.935Z,9.50
2019-04-22T09:14:22.590Z,6.80
2019-04-22T09:15:20.605Z,7.50
2019-04-22T09:16:19.413Z,8.00
2019-04-22T09:17:20.105Z,9.60
2019-04-22T09:19:19.688Z,9.00
2019-04-22T09:20:20.531Z,6.50
2019-04-22T09:21:32.675Z,7.80
2019-04-22T09:22:17.305Z,6.30
2019-04-22T09:23:24.695Z,7.70
2019-04-22T09:24:16.512Z,8.80
2019-04-22T09:25:17.021Z,9.80
2019-04-22T09:26:27.386Z,6.50
2019-04-22T09:27:31.786Z,6.30
2019-04-22T09:28:15.122Z,9.20
2019-04-22T09:29:20.754Z,6.10
2019-04-22T09:30:18.747Z,6.30
2019-04-22T09:31:19.656Z,5.90
2019-04-22T09:32:19.001Z,7.00
2019-04-22T09:33:25.750Z,8.60
2019-04-22T09:34:20.993Z,8.50
2019-04-22T09:35:21.368Z,6.00
2019-04-22T09:36:25.733Z,7.70
2019-04-22T09:37:27.181Z,7.40
2019-04-22T09:39:21.462Z,10.30
2019-04-22T09:40:22.349Z,7.10
2019-04-22T09:41:24.935Z,4.80
2019-04-22T09:42:17.237Z,6.50
2019-04-22T09:43:17.391Z,6.10
2019-04-22T09:44:16.466Z,6.60
2019-04-22T09:45:15.259Z,7.10
2019-04-22T09:46:19.830Z,8.70
2019-04-22T09:47:19.124Z,6.40
2019-04-22T09:48:23.493Z,6.70
2019-04-22T09:49:23.417Z,5.70
2019-04-22T09:50:16.424Z,9.30
2019-04-22T09:51:20.206Z,9.30
2019-04-22T09:52:16.215Z,7.00
2019-04-22T09:53:25.441Z,7.40
2019-04-22T09:54:21.676Z,8.00
2019-04-22T09:55:18.258Z,7.80
2019-04-22T09:56:18.105Z,6.60
2019-04-22T09:57:15.764Z,6.50
2019-04-22T09:58:20.885Z,7.30
2019-04-22T09:59:34.883Z,6.40
2019-04-22T10:00:13.938Z,8.50
2019-04-22T10:01:22.660Z,8.50
2019-04-22T10:03:36.505Z,9.70
2019-04-22T10:04:14.183Z,6.10
2019-04-22T10:05:20.894Z,7.70
2019-04-22T10:06:29.355Z,6.60
2019-04-22T10:07:23.911Z,6.20
2019-04-22T10:08:24.582Z,9.10
2019-04-22T10:09:34.338Z,8.10
2019-04-22T10:10:20.537Z,7.20
2019-04-22T10:11:23.979Z,12.00
2019-04-22T10:12:19.259Z,7.70
2019-04-22T10:13:18.735Z,7.90
2019-04-22T10:14:18.756Z,6.50
2019-04-22T10:15:13.864Z,8.30
2019-04-22T10:16:17.347Z,7.20
2019-04-22T10:17:15.461Z,8.40
2019-04-22T10:18:16.250Z,7.90
2019-04-22T10:19:16.850Z,6.20
2019-04-22T10:20:16.759Z,7.60
2019-04-22T10:21:28.100Z,8.70
2019-04-22T10:22:19.703Z,6.00
2019-04-22T10:23:19.024Z,8.80
2019-04-22T10:24:16.749Z,8.80
2019-04-22T10:25:16.880Z,9.20
2019-04-22T10:26:22.314Z,8.70
2019-04-22T10:27:14.349Z,5.80
2019-04-22T10:29:16.991Z,11.50
2019-04-22T10:30:27.324Z,7.80
2019-04-22T10:31:21.884Z,9.00
2019-04-22T10:32:14.742Z,6.80
2019-04-22T10:33:13.227Z,10.20
2019-04-22T10:34:05.380Z,7.00
2019-04-22T10:35:01.938Z,9.70
2019-04-22T10:35:51.884Z,6.30
2019-04-22T10:36:56.888Z,8.80
2019-04-22T10:37:52.168Z,7.30
2019-04-22T10:38:50.763Z,7.00
2019-04-22T10:39:56.239Z,6.50
2019-04-22T10:40:52.558Z,8.10
2019-04-22T10:41:50.736Z,6.20
2019-04-22T10:42:51.469Z,7.80
2019-04-22T10:43:51.036Z,8.10
2019-04-22T10:44:51.847Z,9.30
2019-04-22T10:45:52.193Z,8.00
2019-04-22T10:46:51.965Z,8.30
2019-04-22T10:47:52.141Z,7.40
2019-04-22T10:48:50.658Z,8.40
2019-04-22T10:49:52.098Z,7.20
2019-04-22T10:50:50.709Z,6.90
2019-04-22T10:51:50.821Z,5.80
2019-04-22T10:52:50.664Z,8.00
2019-04-22T10:53:51.272Z,6.20
2019-04-22T10:54:51.665Z,5.70
2019-04-22T10:55:51.673Z,7.00
2019-04-22T10:56:50.845Z,7.50
2019-04-22T10:57:50.761Z,7.40
2019-04-22T10:58:50.859Z,9.80
2019-04-22T10:59:50.556Z,7.40
2019-04-22T11:00:52.098Z,7.30
2019-04-22T11:01:50.671Z,6.20
2019-04-22T11:02:50.563Z,6.50
2019-04-22T11:03:51.127Z,6.30
2019-04-22T11:04:50.507Z,8.50
2019-04-22T11:05:50.643Z,6.20
2019-04-22T11:06:55.690Z,8.00
2019-04-22T11:07:57.538Z,8.30
2019-04-22T11:08:56.206Z,5.90
2019-04-22T11:09:58.977Z,6.50
2019-04-22T11:11:09.398Z,6.70
2019-04-22T11:11:58.446Z,7.50
2019-04-22T11:12:51.421Z,9.00
2019-04-22T11:13:51.932Z,7.70
2019-04-22T11:14:51.633Z,6.10
2019-04-22T11:15:50.985Z,7.20
2019-04-22T11:16:50.387Z,8.20
2019-04-22T11:17:51.404Z,7.30
2019-04-22T11:18:51.671Z,11.80
2019-04-22T11:19:50.358Z,6.10
2019-04-22T11:20:51.545Z,6.30
2019-04-22T11:21:59.896Z,6.80
2019-04-22T11:22:52.976Z,6.10
2019-04-22T11:23:50.530Z,7.20
2019-04-22T11:24:50.827Z,7.10
2019-04-22T11:25:50.299Z,7.30
2019-04-22T11:26:50.300Z,11.20
2019-04-22T11:27:51.374Z,6.70
2019-04-22T11:28:51.668Z,6.30
2019-04-22T11:29:50.266Z,7.10
2019-04-22T11:30:50.307Z,11.20
2019-04-22T11:31:50.538Z,5.30
2019-04-22T11:32:50.702Z,6.20
2019-04-22T11:33:50.364Z,6.30
2019-04-22T11:34:51.200Z,6.40
2019-04-22T11:35:50.270Z,6.50
2019-04-22T11:36:50.593Z,8.40
2019-04-22T11:37:50.719Z,7.30
2019-04-22T11:38:56.469Z,10.30
2019-04-22T11:40:04.366Z,7.80
2019-04-22T11:40:53.974Z,6.10
2019-04-22T11:41:50.151Z,6.00
2019-04-22T11:42:50.321Z,5.10
2019-04-22T11:43:51.350Z,7.90
2019-04-22T11:44:50.971Z,6.50
2019-04-22T11:45:51.177Z,5.20
2019-04-22T11:46:51.539Z,10.20
2019-04-22T11:47:51.087Z,6.80
2019-04-22T11:48:50.114Z,5.30
2019-04-22T11:49:50.064Z,7.80
2019-04-22T11:50:51.552Z,6.20
2019-04-22T11:51:50.049Z,6.40
2019-04-22T11:52:50.991Z,7.40
2019-04-22T11:53:50.028Z,8.00
2019-04-22T11:54:50.694Z,6.80
2019-04-22T11:55:50.833Z,5.90
2019-04-22T11:56:50.000Z,7.00
2019-04-22T11:57:49.984Z,6.60
2019-04-22T11:58:50.856Z,9.10
2019-04-22T11:59:51.052Z,6.90
2019-04-22T12:00:51.676Z,6.00
2019-04-22T12:01:50.995Z,11.20
2019-04-22T12:02:51.158Z,5.60
2019-04-22T12:03:49.935Z,6.10
2019-04-22T12:04:49.948Z,8.60
2019-04-22T12:05:50.019Z,7.30
2019-04-22T12:06:49.904Z,8.80
2019-04-22T12:07:50.961Z,7.10
2019-04-22T12:08:50.099Z,9.30
2019-04-22T12:09:51.299Z,5.60
2019-04-22T12:10:54.605Z,7.70
2019-04-22T12:11:51.719Z,7.90
2019-04-22T12:12:51.498Z,7.00
2019-04-22T12:13:49.836Z,7.40
2019-04-22T12:14:50.123Z,4.90
2019-04-22T12:15:51.052Z,8.10
2019-04-22T12:16:49.855Z,5.50
2019-04-22T12:17:51.009Z,9.20
2019-04-22T12:18:51.100Z,6.80
2019-04-22T12:19:50.398Z,5.90
2019-04-22T12:20:50.957Z,6.40
2019-04-22T12:21:50.949Z,7.90
2019-04-22T12:22:51.290Z,5.90
2019-04-22T12:23:50.904Z,6.10
2019-04-22T12:24:50.348Z,5.50
2019-04-22T12:25:56.109Z,6.20
2019-04-22T12:26:50.729Z,6.90
2019-04-22T12:27:50.792Z,10.40
2019-04-22T12:28:50.990Z,9.30
2019-04-22T12:29:51.089Z,6.80
2019-04-22T12:30:51.156Z,8.60
2019-04-22T12:31:49.659Z,7.20
2019-04-22T12:32:50.505Z,5.80
2019-04-22T12:33:49.715Z,7.20
2019-04-22T12:34:49.637Z,5.40
2019-04-22T12:35:50.531Z,3.90
2019-04-22T12:36:51.091Z,8.10
2019-04-22T12:37:54.055Z,5.90
2019-04-22T12:38:51.458Z,4.70
2019-04-22T12:39:52.987Z,5.10
2019-04-22T12:40:56.619Z,6.40
2019-04-22T12:41:51.970Z,6.20
2019-04-22T12:42:49.560Z,4.40
2019-04-22T12:43:49.565Z,10.50
2019-04-22T12:44:51.052Z,4.20
2019-04-22T12:45:50.092Z,5.80
2019-04-22T12:46:50.263Z,5.00
2019-04-22T12:47:50.445Z,12.80
2019-04-22T12:48:49.930Z,3.10
2019-04-22T12:49:56.168Z,5.90
2019-04-22T12:50:53.874Z,3.50
2019-04-22T12:51:49.602Z,5.70
2019-04-22T12:52:55.559Z,4.10
2019-04-22T12:53:50.929Z,6.50
2019-04-22T12:54:50.781Z,5.50
2019-04-22T12:55:50.287Z,4.20
2019-04-22T12:56:49.423Z,4.70
2019-04-22T12:57:53.367Z,6.20
2019-04-22T12:58:51.699Z,3.00
2019-04-22T12:59:49.827Z,8.30
2019-04-22T13:00:51.378Z,8.40
2019-04-22T13:01:50.989Z,6.40
2019-04-22T13:02:49.369Z,4.70
2019-04-22T13:03:50.140Z,6.60
2019-04-22T13:04:49.969Z,3.50
2019-04-22T13:05:49.577Z,5.20
2019-04-22T13:06:49.940Z,3.70
2019-04-22T13:07:49.639Z,4.30
2019-04-22T13:08:49.851Z,5.40
2019-04-22T13:09:49.614Z,5.20
2019-04-22T13:10:55.205Z,4.50
2019-04-22T13:11:51.010Z,5.50
2019-04-22T13:12:49.265Z,4.60
2019-04-22T13:13:49.438Z,4.10
2019-04-22T13:14:50.645Z,5.40
2019-04-22T13:15:50.905Z,3.80
2019-04-22T13:16:49.310Z,5.10
2019-04-22T13:18:01.077Z,8.20
2019-04-22T13:18:57.599Z,4.80
2019-04-22T13:19:50.189Z,5.10
2019-04-22T13:20:50.315Z,5.10
2019-04-22T13:21:49.207Z,4.00
2019-04-22T13:22:50.503Z,3.10
2019-04-22T13:23:49.163Z,4.00
2019-04-22T13:24:49.934Z,5.30
2019-04-22T13:25:49.221Z,5.20
2019-04-22T13:26:50.567Z,4.80
2019-04-22T13:27:49.225Z,6.40
2019-04-22T13:28:49.311Z,4.20
2019-04-22T13:29:49.119Z,4.20
2019-04-22T13:30:50.488Z,3.10
2019-04-22T13:31:49.112Z,6.50
2019-04-22T13:32:49.187Z,3.90
2019-04-22T13:33:52.764Z,4.80
2019-04-22T13:34:53.933Z,4.90
2019-04-22T13:35:50.047Z,4.90
2019-04-22T13:36:50.342Z,5.90
2019-04-22T13:37:49.023Z,8.00
2019-04-22T13:38:49.253Z,3.30
2019-04-22T13:39:49.296Z,6.70
2019-04-22T13:41:00.654Z,5.10
2019-04-22T13:41:54.563Z,4.20
2019-04-22T13:42:51.191Z,4.70
2019-04-22T13:43:49.279Z,3.50
2019-04-22T13:44:49.697Z,4.90
2019-04-22T13:45:49.847Z,3.20
2019-04-22T13:47:08.242Z,4.60
2019-04-22T13:48:09.915Z,4.80
2019-04-22T13:49:21.276Z,6.20
2019-04-22T13:51:21.797Z,5.60
2019-04-22T13:52:20.709Z,3.70
2019-04-22T13:53:30.390Z,3.80
2019-04-22T13:55:16.403Z,4.40
2019-04-22T13:56:24.823Z,4.00
2019-04-22T13:57:09.054Z,4.80
2019-04-22T13:58:02.576Z,4.30
2019-04-22T13:59:01.832Z,3.10
2019-04-22T13:59:54.686Z,8.40
2019-04-22T14:00:49.795Z,6.40
2019-04-22T14:01:50.588Z,4.50
2019-04-22T14:02:48.813Z,4.60
2019-04-22T14:03:48.993Z,3.90
2019-04-22T14:04:48.773Z,6.00
2019-04-22T14:05:48.874Z,3.50
2019-04-22T14:06:49.098Z,3.90
2019-04-22T14:07:52.061Z,21.00
2019-04-22T14:08:49.435Z,7.30
2019-04-22T14:09:48.726Z,5.70
2019-04-22T14:10:50.190Z,6.90
2019-04-22T14:11:52.857Z,4.40
2019-04-22T14:12:50.859Z,5.60
2019-04-22T14:13:50.075Z,6.60
2019-04-22T14:14:50.446Z,7.00
2019-04-22T14:15:48.763Z,6.30
2019-04-22T14:16:49.105Z,3.60
2019-04-22T14:17:49.200Z,5.70
2019-04-22T14:18:49.777Z,7.30
2019-04-22T14:19:48.627Z,6.80
2019-04-22T14:20:49.214Z,7.00
2019-04-22T14:21:49.671Z,4.00
2019-04-22T14:22:48.663Z,6.50
2019-04-22T14:23:48.785Z,4.90
2019-04-22T14:24:48.869Z,4.80
2019-04-22T14:25:48.555Z,5.00
2019-04-22T14:26:59.961Z,5.70
2019-04-22T14:27:56.521Z,3.80
2019-04-22T14:28:50.079Z,3.30
2019-04-22T14:29:49.407Z,4.10
2019-04-22T14:30:48.674Z,3.40
2019-04-22T14:32:02.110Z,3.90